sensor_id;sensor_type;location;lat;lon;timestamp;pressure;altitude;pressure_sealevel;temperature;humidity
41830;BME280;38614;43.472;23.936;2023-05-02T00:01:31;100558.63;;;9.70;100.00
41830;BME280;38614;43.472;23.936;2023-05-02T00:04:19;100547.69;;;9.62;100.00
41830;BME280;38614;43.472;23.936;2023-05-02T00:07:07;100534.00;;;9.53;100.00
41830;BME280;38614;43.472;23.936;2023-05-02T00:09:54;100557.59;;;9.63;100.00
41830;BME280;38614;43.472;23.936;2023-05-02T00:12:42;100531.34;;;9.45;100.00
41830;BME280;38614;43.472;23.936;2023-05-02T00:15:30;100555.72;;;9.42;100.00
41830;BME280;38614;43.472;23.936;2023-05-02T00:18:17;100563.75;;;9.48;100.00
41830;BME280;38614;43.472;23.936;2023-05-02T00:21:06;100549.13;;;9.35;100.00
41830;BME280;38614;43.472;23.936;2023-05-02T00:23:55;100562.03;;;9.43;100.00
41830;BME280;38614;43.472;23.936;2023-05-02T00:26:43;100552.72;;;9.48;100.00
41830;BME280;38614;43.472;23.936;2023-05-02T00:29:31;100548.59;;;9.41;100.00
41830;BME280;38614;43.472;23.936;2023-05-02T00:32:21;100556.66;;;9.59;100.00
41830;BME280;38614;43.472;23.936;2023-05-02T00:35:09;100550.22;;;9.55;100.00
41830;BME280;38614;43.472;23.936;2023-05-02T00:37:58;100562.66;;;9.85;100.00
41830;BME280;38614;43.472;23.936;2023-05-02T00:40:48;100571.53;;;9.91;100.00
41830;BME280;38614;43.472;23.936;2023-05-02T00:43:36;100573.00;;;9.76;100.00
41830;BME280;38614;43.472;23.936;2023-05-02T00:46:26;100574.94;;;9.63;100.00
41830;BME280;38614;43.472;23.936;2023-05-02T00:49:14;100578.25;;;9.57;100.00
41830;BME280;38614;43.472;23.936;2023-05-02T00:52:02;100547.19;;;9.35;100.00
41830;BME280;38614;43.472;23.936;2023-05-02T00:54:50;100570.66;;;9.41;100.00
41830;BME280;38614;43.472;23.936;2023-05-02T00:57:37;100575.47;;;9.45;100.00
41830;BME280;38614;43.472;23.936;2023-05-02T01:00:35;100563.28;;;9.33;100.00
41830;BME280;38614;43.472;23.936;2023-05-02T01:09:38;100576.97;;;9.42;100.00
41830;BME280;38614;43.472;23.936;2023-05-02T01:12:36;100566.13;;;9.37;100.00
41830;BME280;38614;43.472;23.936;2023-05-02T01:15:29;100563.94;;;9.30;100.00
41830;BME280;38614;43.472;23.936;2023-05-02T01:18:21;100583.72;;;9.32;100.00
41830;BME280;38614;43.472;23.936;2023-05-02T01:21:11;100590.97;;;9.37;100.00
41830;BME280;38614;43.472;23.936;2023-05-02T01:24:24;100587.31;;;9.45;100.00
41830;BME280;38614;43.472;23.936;2023-05-02T01:30:16;100587.75;;;9.35;100.00
41830;BME280;38614;43.472;23.936;2023-05-02T01:33:07;100567.69;;;9.13;100.00
41830;BME280;38614;43.472;23.936;2023-05-02T01:35:57;100585.06;;;9.26;100.00
41830;BME280;38614;43.472;23.936;2023-05-02T01:38:48;100565.97;;;9.21;100.00
41830;BME280;38614;43.472;23.936;2023-05-02T01:41:39;100588.25;;;9.16;100.00
41830;BME280;38614;43.472;23.936;2023-05-02T01:44:29;100583.66;;;9.20;100.00
41830;BME280;38614;43.472;23.936;2023-05-02T01:47:18;100545.72;;;9.05;100.00
41830;BME280;38614;43.472;23.936;2023-05-02T01:50:13;100554.78;;;9.05;100.00
41830;BME280;38614;43.472;23.936;2023-05-02T01:53:03;100582.78;;;9.28;100.00
41830;BME280;38614;43.472;23.936;2023-05-02T01:55:55;100579.09;;;9.24;100.00
41830;BME280;38614;43.472;23.936;2023-05-02T01:58:49;100588.88;;;9.22;100.00
41830;BME280;38614;43.472;23.936;2023-05-02T02:01:39;100584.97;;;9.23;100.00
41830;BME280;38614;43.472;23.936;2023-05-02T02:04:31;100574.38;;;9.25;100.00
41830;BME280;38614;43.472;23.936;2023-05-02T02:07:19;100582.84;;;9.40;100.00
41830;BME280;38614;43.472;23.936;2023-05-02T02:10:07;100587.41;;;9.36;100.00
41830;BME280;38614;43.472;23.936;2023-05-02T02:13:22;100581.09;;;9.48;100.00
41830;BME280;38614;43.472;23.936;2023-05-02T02:16:18;100558.41;;;9.30;100.00
41830;BME280;38614;43.472;23.936;2023-05-02T02:19:12;100582.56;;;9.33;100.00
41830;BME280;38614;43.472;23.936;2023-05-02T02:22:02;100590.16;;;9.36;100.00
41830;BME280;38614;43.472;23.936;2023-05-02T02:24:52;100528.72;;;8.82;100.00
41830;BME280;38614;43.472;23.936;2023-05-02T02:27:41;100584.69;;;9.16;100.00
41830;BME280;38614;43.472;23.936;2023-05-02T02:30:29;100590.56;;;9.14;100.00
41830;BME280;38614;43.472;23.936;2023-05-02T02:33:18;100598.66;;;9.10;100.00
41830;BME280;38614;43.472;23.936;2023-05-02T02:36:21;100604.88;;;9.07;100.00
41830;BME280;38614;43.472;23.936;2023-05-02T02:48:28;100604.69;;;8.71;100.00
41830;BME280;38614;43.472;23.936;2023-05-02T02:51:29;100593.31;;;8.72;100.00
41830;BME280;38614;43.472;23.936;2023-05-02T03:00:25;100605.88;;;8.82;100.00
41830;BME280;38614;43.472;23.936;2023-05-02T03:03:14;100612.41;;;8.77;100.00
41830;BME280;38614;43.472;23.936;2023-05-02T03:06:03;100617.25;;;8.80;100.00
41830;BME280;38614;43.472;23.936;2023-05-02T03:08:52;100517.25;;;8.09;100.00
41830;BME280;38614;43.472;23.936;2023-05-02T03:11:49;100614.88;;;8.49;100.00
41830;BME280;38614;43.472;23.936;2023-05-02T03:14:38;100614.06;;;8.49;100.00
41830;BME280;38614;43.472;23.936;2023-05-02T03:17:26;100623.28;;;8.53;100.00
41830;BME280;38614;43.472;23.936;2023-05-02T03:20:20;100606.19;;;8.39;100.00
41830;BME280;38614;43.472;23.936;2023-05-02T03:23:08;100618.44;;;8.50;100.00
41830;BME280;38614;43.472;23.936;2023-05-02T03:25:55;100611.84;;;8.63;100.00
41830;BME280;38614;43.472;23.936;2023-05-02T03:28:45;100605.88;;;8.61;100.00
41830;BME280;38614;43.472;23.936;2023-05-02T03:31:38;100624.38;;;8.81;100.00
41830;BME280;38614;43.472;23.936;2023-05-02T03:34:26;100636.94;;;8.91;100.00
41830;BME280;38614;43.472;23.936;2023-05-02T03:37:14;100633.66;;;8.98;100.00
41830;BME280;38614;43.472;23.936;2023-05-02T03:40:02;100629.41;;;9.00;100.00
41830;BME280;38614;43.472;23.936;2023-05-02T03:42:50;100620.56;;;8.95;100.00
41830;BME280;38614;43.472;23.936;2023-05-02T03:45:44;100622.91;;;9.05;100.00
41830;BME280;38614;43.472;23.936;2023-05-02T03:48:39;100628.69;;;9.12;100.00
41830;BME280;38614;43.472;23.936;2023-05-02T03:51:31;100636.84;;;9.21;100.00
41830;BME280;38614;43.472;23.936;2023-05-02T03:54:20;100638.38;;;9.30;100.00
41830;BME280;38614;43.472;23.936;2023-05-02T03:57:08;100607.81;;;9.23;100.00
41830;BME280;38614;43.472;23.936;2023-05-02T03:59:56;100635.25;;;9.40;100.00
41830;BME280;38614;43.472;23.936;2023-05-02T04:03:00;100641.34;;;9.46;100.00
41830;BME280;38614;43.472;23.936;2023-05-02T04:05:49;100629.75;;;9.53;100.00
41830;BME280;38614;43.472;23.936;2023-05-02T04:08:38;100623.59;;;9.68;100.00
41830;BME280;38614;43.472;23.936;2023-05-02T04:11:26;100634.41;;;9.85;100.00
41830;BME280;38614;43.472;23.936;2023-05-02T04:14:14;100620.06;;;9.80;100.00
41830;BME280;38614;43.472;23.936;2023-05-02T04:17:03;100604.31;;;9.80;100.00
41830;BME280;38614;43.472;23.936;2023-05-02T04:19:57;100561.84;;;9.73;100.00
41830;BME280;38614;43.472;23.936;2023-05-02T04:22:48;100611.25;;;10.35;100.00
41830;BME280;38614;43.472;23.936;2023-05-02T04:25:37;100620.78;;;10.50;100.00
41830;BME280;38614;43.472;23.936;2023-05-02T04:28:25;100626.78;;;10.64;100.00
41830;BME280;38614;43.472;23.936;2023-05-02T04:31:18;100616.03;;;10.75;100.00
41830;BME280;38614;43.472;23.936;2023-05-02T04:34:21;100635.75;;;11.13;100.00
41830;BME280;38614;43.472;23.936;2023-05-02T04:37:14;100639.63;;;11.25;100.00
41830;BME280;38614;43.472;23.936;2023-05-02T04:40:05;100630.88;;;11.51;100.00
41830;BME280;38614;43.472;23.936;2023-05-02T04:42:53;100637.69;;;11.69;100.00
41830;BME280;38614;43.472;23.936;2023-05-02T04:45:43;100654.63;;;11.80;100.00
41830;BME280;38614;43.472;23.936;2023-05-02T04:48:38;100632.59;;;11.55;100.00
41830;BME280;38614;43.472;23.936;2023-05-02T04:51:28;100614.69;;;11.81;100.00
41830;BME280;38614;43.472;23.936;2023-05-02T04:54:17;100639.91;;;12.23;100.00
41830;BME280;38614;43.472;23.936;2023-05-02T04:57:06;100642.41;;;12.44;100.00
41830;BME280;38614;43.472;23.936;2023-05-02T04:59:57;100623.53;;;12.49;100.00
41830;BME280;38614;43.472;23.936;2023-05-02T05:02:46;100643.41;;;12.87;100.00
41830;BME280;38614;43.472;23.936;2023-05-02T05:05:35;100647.16;;;13.13;100.00
41830;BME280;38614;43.472;23.936;2023-05-02T05:08:26;100650.97;;;13.25;100.00
41830;BME280;38614;43.472;23.936;2023-05-02T05:11:14;100640.56;;;14.03;100.00
41830;BME280;38614;43.472;23.936;2023-05-02T05:14:04;100626.50;;;14.64;100.00
41830;BME280;38614;43.472;23.936;2023-05-02T05:16:55;100632.69;;;15.10;100.00
41830;BME280;38614;43.472;23.936;2023-05-02T05:19:45;100644.94;;;15.66;100.00
41830;BME280;38614;43.472;23.936;2023-05-02T05:22:38;100641.50;;;15.46;100.00
41830;BME280;38614;43.472;23.936;2023-05-02T05:25:26;100646.38;;;15.56;100.00
41830;BME280;38614;43.472;23.936;2023-05-02T05:28:17;100633.53;;;15.82;100.00
41830;BME280;38614;43.472;23.936;2023-05-02T05:31:07;100650.25;;;15.82;100.00
41830;BME280;38614;43.472;23.936;2023-05-02T05:33:56;100589.16;;;15.62;100.00
41830;BME280;38614;43.472;23.936;2023-05-02T05:36:48;100642.38;;;15.91;100.00
41830;BME280;38614;43.472;23.936;2023-05-02T05:39:36;100654.00;;;16.41;100.00
41830;BME280;38614;43.472;23.936;2023-05-02T05:42:25;100652.75;;;16.90;100.00
41830;BME280;38614;43.472;23.936;2023-05-02T05:45:18;100644.50;;;17.11;100.00
41830;BME280;38614;43.472;23.936;2023-05-02T05:48:06;100651.88;;;17.51;100.00
41830;BME280;38614;43.472;23.936;2023-05-02T05:51:04;100644.41;;;18.02;100.00
41830;BME280;38614;43.472;23.936;2023-05-02T05:53:52;100651.44;;;17.46;100.00
41830;BME280;38614;43.472;23.936;2023-05-02T05:56:40;100641.63;;;17.87;100.00
41830;BME280;38614;43.472;23.936;2023-05-02T05:59:34;100650.81;;;18.31;100.00
41830;BME280;38614;43.472;23.936;2023-05-02T06:02:23;100626.81;;;18.90;100.00
41830;BME280;38614;43.472;23.936;2023-05-02T06:05:11;100648.38;;;19.00;100.00
41830;BME280;38614;43.472;23.936;2023-05-02T06:07:59;100639.63;;;18.81;100.00
41830;BME280;38614;43.472;23.936;2023-05-02T06:10:47;100654.78;;;18.94;100.00
41830;BME280;38614;43.472;23.936;2023-05-02T06:13:35;100653.97;;;19.04;100.00
41830;BME280;38614;43.472;23.936;2023-05-02T06:16:23;100648.97;;;19.51;100.00
41830;BME280;38614;43.472;23.936;2023-05-02T06:19:10;100656.56;;;19.61;100.00
41830;BME280;38614;43.472;23.936;2023-05-02T06:21:58;100655.28;;;19.76;100.00
41830;BME280;38614;43.472;23.936;2023-05-02T06:24:46;100591.66;;;19.62;100.00
41830;BME280;38614;43.472;23.936;2023-05-02T06:27:34;100644.91;;;20.77;100.00
41830;BME280;38614;43.472;23.936;2023-05-02T06:30:22;100654.63;;;20.65;100.00
41830;BME280;38614;43.472;23.936;2023-05-02T06:33:09;100630.38;;;20.37;100.00
41830;BME280;38614;43.472;23.936;2023-05-02T06:35:58;100650.34;;;21.32;100.00
41830;BME280;38614;43.472;23.936;2023-05-02T06:38:48;100644.53;;;21.13;100.00
41830;BME280;38614;43.472;23.936;2023-05-02T06:41:36;100648.16;;;21.10;100.00
41830;BME280;38614;43.472;23.936;2023-05-02T06:44:24;100642.97;;;21.42;100.00
41830;BME280;38614;43.472;23.936;2023-05-02T06:47:11;100651.75;;;21.75;100.00
41830;BME280;38614;43.472;23.936;2023-05-02T06:49:59;100648.81;;;21.55;96.64
41830;BME280;38614;43.472;23.936;2023-05-02T06:52:48;100647.78;;;21.72;98.10
41830;BME280;38614;43.472;23.936;2023-05-02T06:55:35;100656.94;;;21.80;99.88
41830;BME280;38614;43.472;23.936;2023-05-02T06:58:23;100653.31;;;21.79;96.75
41830;BME280;38614;43.472;23.936;2023-05-02T07:01:11;100642.69;;;21.90;92.53
41830;BME280;38614;43.472;23.936;2023-05-02T07:04:00;100591.97;;;21.40;92.29
41830;BME280;38614;43.472;23.936;2023-05-02T07:06:53;100656.56;;;21.78;93.24
41830;BME280;38614;43.472;23.936;2023-05-02T07:09:40;100653.84;;;21.71;92.27
41830;BME280;38614;43.472;23.936;2023-05-02T07:12:28;100626.19;;;22.19;93.33
41830;BME280;38614;43.472;23.936;2023-05-02T07:15:16;100660.41;;;22.88;91.83
41830;BME280;38614;43.472;23.936;2023-05-02T07:18:04;100653.25;;;22.60;90.65
41830;BME280;38614;43.472;23.936;2023-05-02T07:20:52;100649.88;;;23.52;89.83
41830;BME280;38614;43.472;23.936;2023-05-02T07:23:42;100657.34;;;23.02;88.04
41830;BME280;38614;43.472;23.936;2023-05-02T07:26:30;100629.13;;;22.83;87.05
41830;BME280;38614;43.472;23.936;2023-05-02T07:29:17;100654.75;;;23.12;90.18
41830;BME280;38614;43.472;23.936;2023-05-02T07:32:05;100654.97;;;23.60;84.06
41830;BME280;38614;43.472;23.936;2023-05-02T07:34:53;100652.00;;;23.68;84.14
41830;BME280;38614;43.472;23.936;2023-05-02T07:37:42;100652.22;;;24.09;81.66
41830;BME280;38614;43.472;23.936;2023-05-02T07:40:30;100647.69;;;23.79;78.77
41830;BME280;38614;43.472;23.936;2023-05-02T07:43:17;100643.03;;;23.89;78.24
41830;BME280;38614;43.472;23.936;2023-05-02T07:46:05;100660.56;;;23.80;80.40
41830;BME280;38614;43.472;23.936;2023-05-02T07:48:53;100642.72;;;24.20;74.51
41830;BME280;38614;43.472;23.936;2023-05-02T07:51:41;100649.78;;;24.77;72.61
41830;BME280;38614;43.472;23.936;2023-05-02T07:54:29;100651.91;;;24.56;71.29
41830;BME280;38614;43.472;23.936;2023-05-02T07:57:17;100639.13;;;24.35;72.74
41830;BME280;38614;43.472;23.936;2023-05-02T08:00:07;100647.16;;;24.21;69.60
41830;BME280;38614;43.472;23.936;2023-05-02T08:02:59;100593.03;;;23.53;70.48
41830;BME280;38614;43.472;23.936;2023-05-02T08:05:47;100648.22;;;24.43;75.05
41830;BME280;38614;43.472;23.936;2023-05-02T08:08:35;100649.25;;;24.65;69.51
41830;BME280;38614;43.472;23.936;2023-05-02T08:11:23;100633.63;;;24.77;69.14
41830;BME280;38614;43.472;23.936;2023-05-02T08:14:12;100649.22;;;24.82;70.91
41830;BME280;38614;43.472;23.936;2023-05-02T08:17:00;100644.38;;;25.40;67.61
41830;BME280;38614;43.472;23.936;2023-05-02T08:19:48;100643.69;;;24.13;66.96
41830;BME280;38614;43.472;23.936;2023-05-02T08:22:35;100644.84;;;24.64;67.92
41830;BME280;38614;43.472;23.936;2023-05-02T08:25:23;100639.41;;;25.44;66.89
41830;BME280;38614;43.472;23.936;2023-05-02T08:28:11;100645.28;;;25.37;65.77
41830;BME280;38614;43.472;23.936;2023-05-02T08:30:59;100637.38;;;25.45;64.77
41830;BME280;38614;43.472;23.936;2023-05-02T08:33:47;100645.72;;;25.36;62.80
41830;BME280;38614;43.472;23.936;2023-05-02T08:36:35;100635.81;;;25.56;62.36
41830;BME280;38614;43.472;23.936;2023-05-02T08:39:23;100640.75;;;25.81;63.51
41830;BME280;38614;43.472;23.936;2023-05-02T08:42:11;100626.91;;;26.09;60.73
41830;BME280;38614;43.472;23.936;2023-05-02T08:44:59;100631.41;;;26.32;60.07
41830;BME280;38614;43.472;23.936;2023-05-02T08:47:48;100633.28;;;26.60;61.24
41830;BME280;38614;43.472;23.936;2023-05-02T08:50:42;100632.25;;;27.02;58.87
41830;BME280;38614;43.472;23.936;2023-05-02T08:53:33;100628.91;;;27.16;56.96
41830;BME280;38614;43.472;23.936;2023-05-02T08:56:21;100610.84;;;27.22;54.11
41830;BME280;38614;43.472;23.936;2023-05-02T08:59:09;100611.72;;;26.97;53.79
41830;BME280;38614;43.472;23.936;2023-05-02T09:02:06;100593.81;;;27.01;52.13
41830;BME280;38614;43.472;23.936;2023-05-02T09:04:57;100607.88;;;27.04;51.16
41830;BME280;38614;43.472;23.936;2023-05-02T09:07:47;100610.22;;;26.84;45.50
41830;BME280;38614;43.472;23.936;2023-05-02T09:10:35;100614.94;;;26.65;50.29
41830;BME280;38614;43.472;23.936;2023-05-02T09:13:37;100616.19;;;26.51;48.37
41830;BME280;38614;43.472;23.936;2023-05-02T09:16:25;100589.97;;;26.94;49.71
41830;BME280;38614;43.472;23.936;2023-05-02T09:19:23;100617.31;;;26.88;48.90
41830;BME280;38614;43.472;23.936;2023-05-02T09:22:22;100603.78;;;26.23;50.14
41830;BME280;38614;43.472;23.936;2023-05-02T09:25:10;100609.41;;;27.18;50.04
41830;BME280;38614;43.472;23.936;2023-05-02T09:27:58;100602.59;;;27.68;50.73
41830;BME280;38614;43.472;23.936;2023-05-02T09:30:48;100597.00;;;27.55;49.53
41830;BME280;38614;43.472;23.936;2023-05-02T09:33:37;100609.38;;;27.71;48.79
41830;BME280;38614;43.472;23.936;2023-05-02T09:36:25;100602.06;;;27.61;47.70
41830;BME280;38614;43.472;23.936;2023-05-02T09:39:15;100592.69;;;27.20;48.67
41830;BME280;38614;43.472;23.936;2023-05-02T09:42:11;100586.47;;;27.34;48.49
41830;BME280;38614;43.472;23.936;2023-05-02T09:44:59;100569.97;;;27.42;47.61
41830;BME280;38614;43.472;23.936;2023-05-02T09:47:48;100583.22;;;27.67;47.68
41830;BME280;38614;43.472;23.936;2023-05-02T09:50:38;100576.38;;;27.33;45.54
41830;BME280;38614;43.472;23.936;2023-05-02T09:53:26;100563.91;;;27.93;47.25
41830;BME280;38614;43.472;23.936;2023-05-02T09:56:16;100556.47;;;27.24;47.50
41830;BME280;38614;43.472;23.936;2023-05-02T09:59:13;100563.09;;;27.61;46.76
41830;BME280;38614;43.472;23.936;2023-05-02T10:02:03;100555.19;;;27.87;45.49
41830;BME280;38614;43.472;23.936;2023-05-02T10:04:52;100552.78;;;28.35;45.96
41830;BME280;38614;43.472;23.936;2023-05-02T10:07:40;100544.44;;;28.68;48.21
41830;BME280;38614;43.472;23.936;2023-05-02T10:10:31;100561.03;;;28.97;47.56
41830;BME280;38614;43.472;23.936;2023-05-02T10:13:23;100555.94;;;28.37;46.57
41830;BME280;38614;43.472;23.936;2023-05-02T10:16:20;100559.97;;;28.08;44.90
41830;BME280;38614;43.472;23.936;2023-05-02T10:19:11;100542.69;;;28.34;45.70
41830;BME280;38614;43.472;23.936;2023-05-02T10:22:00;100519.91;;;28.16;45.45
41830;BME280;38614;43.472;23.936;2023-05-02T10:24:49;100536.53;;;28.35;47.40
41830;BME280;38614;43.472;23.936;2023-05-02T10:27:37;100549.16;;;28.53;48.17
41830;BME280;38614;43.472;23.936;2023-05-02T10:30:25;100549.94;;;27.14;47.30
41830;BME280;38614;43.472;23.936;2023-05-02T10:33:13;100534.84;;;27.89;46.44
41830;BME280;38614;43.472;23.936;2023-05-02T10:36:02;100521.06;;;27.07;45.90
41830;BME280;38614;43.472;23.936;2023-05-02T10:38:50;100539.97;;;28.12;47.26
41830;BME280;38614;43.472;23.936;2023-05-02T10:41:40;100498.41;;;27.47;47.40
41830;BME280;38614;43.472;23.936;2023-05-02T10:44:39;100518.94;;;27.60;46.81
41830;BME280;38614;43.472;23.936;2023-05-02T10:47:27;100530.84;;;27.68;45.68
41830;BME280;38614;43.472;23.936;2023-05-02T10:50:15;100528.66;;;27.81;44.62
41830;BME280;38614;43.472;23.936;2023-05-02T10:53:21;100531.09;;;28.10;45.42
41830;BME280;38614;43.472;23.936;2023-05-02T10:56:17;100528.97;;;28.51;44.47
41830;BME280;38614;43.472;23.936;2023-05-02T10:59:39;100524.06;;;28.33;44.55
41830;BME280;38614;43.472;23.936;2023-05-02T11:05:18;100516.59;;;28.26;44.08
41830;BME280;38614;43.472;23.936;2023-05-02T11:14:43;100519.63;;;28.68;44.38
41830;BME280;38614;43.472;23.936;2023-05-02T11:21:25;100520.66;;;29.26;43.22
41830;BME280;38614;43.472;23.936;2023-05-02T11:24:43;100517.13;;;28.52;42.20
41830;BME280;38614;43.472;23.936;2023-05-02T11:30:39;100496.22;;;28.92;44.34
41830;BME280;38614;43.472;23.936;2023-05-02T11:33:28;100495.47;;;28.36;42.38
41830;BME280;38614;43.472;23.936;2023-05-02T11:36:29;100483.16;;;28.58;43.98
41830;BME280;38614;43.472;23.936;2023-05-02T11:39:18;100501.63;;;28.53;43.26
41830;BME280;38614;43.472;23.936;2023-05-02T11:42:06;100462.78;;;28.14;43.45
41830;BME280;38614;43.472;23.936;2023-05-02T11:44:58;100488.22;;;28.54;42.97
41830;BME280;38614;43.472;23.936;2023-05-02T11:47:47;100473.16;;;28.81;42.45
41830;BME280;38614;43.472;23.936;2023-05-02T11:50:45;100482.16;;;28.98;41.76
41830;BME280;38614;43.472;23.936;2023-05-02T11:53:39;100476.19;;;28.68;42.60
41830;BME280;38614;43.472;23.936;2023-05-02T11:56:27;100482.50;;;28.17;41.66
41830;BME280;38614;43.472;23.936;2023-05-02T11:59:15;100467.16;;;28.88;40.81
41830;BME280;38614;43.472;23.936;2023-05-02T12:02:03;100485.97;;;28.21;40.47
41830;BME280;38614;43.472;23.936;2023-05-02T12:04:50;100463.09;;;28.43;41.43
41830;BME280;38614;43.472;23.936;2023-05-02T12:07:40;100470.06;;;28.51;41.67
41830;BME280;38614;43.472;23.936;2023-05-02T12:10:35;100456.91;;;28.17;43.00
41830;BME280;38614;43.472;23.936;2023-05-02T12:13:25;100457.44;;;28.34;41.49
41830;BME280;38614;43.472;23.936;2023-05-02T12:16:13;100450.47;;;28.44;40.94
41830;BME280;38614;43.472;23.936;2023-05-02T12:19:01;100423.19;;;27.42;40.21
41830;BME280;38614;43.472;23.936;2023-05-02T12:21:50;100442.22;;;28.00;41.05
41830;BME280;38614;43.472;23.936;2023-05-02T12:24:39;100430.72;;;27.76;40.01
41830;BME280;38614;43.472;23.936;2023-05-02T12:27:27;100435.13;;;27.87;41.98
41830;BME280;38614;43.472;23.936;2023-05-02T12:30:26;100430.88;;;28.28;41.37
41830;BME280;38614;43.472;23.936;2023-05-02T12:33:14;100440.06;;;28.50;40.32
41830;BME280;38614;43.472;23.936;2023-05-02T12:36:06;100429.97;;;28.31;40.68
41830;BME280;38614;43.472;23.936;2023-05-02T12:38:57;100422.53;;;28.52;40.02
41830;BME280;38614;43.472;23.936;2023-05-02T12:41:48;100421.25;;;28.44;38.80
41830;BME280;38614;43.472;23.936;2023-05-02T12:44:38;100406.44;;;28.39;40.30
41830;BME280;38614;43.472;23.936;2023-05-02T12:47:26;100397.56;;;27.73;41.82
41830;BME280;38614;43.472;23.936;2023-05-02T12:50:14;100400.09;;;27.80;39.85
41830;BME280;38614;43.472;23.936;2023-05-02T12:53:02;100383.22;;;27.77;40.22
41830;BME280;38614;43.472;23.936;2023-05-02T12:56:01;100383.72;;;27.85;41.76
41830;BME280;38614;43.472;23.936;2023-05-02T12:58:50;100374.84;;;27.82;40.54
41830;BME280;38614;43.472;23.936;2023-05-02T13:01:37;100380.88;;;27.94;39.79
41830;BME280;38614;43.472;23.936;2023-05-02T13:04:39;100387.16;;;28.16;39.20
41830;BME280;38614;43.472;23.936;2023-05-02T13:07:27;100372.81;;;27.83;39.87
41830;BME280;38614;43.472;23.936;2023-05-02T13:10:15;100362.69;;;27.73;39.42
41830;BME280;38614;43.472;23.936;2023-05-02T13:13:06;100365.88;;;27.66;40.40
41830;BME280;38614;43.472;23.936;2023-05-02T13:15:54;100368.97;;;27.59;40.72
41830;BME280;38614;43.472;23.936;2023-05-02T13:18:42;100360.66;;;27.82;40.39
41830;BME280;38614;43.472;23.936;2023-05-02T13:21:33;100373.63;;;27.93;39.42
41830;BME280;38614;43.472;23.936;2023-05-02T13:24:20;100372.16;;;27.70;40.35
41830;BME280;38614;43.472;23.936;2023-05-02T13:27:08;100365.41;;;27.86;39.22
41830;BME280;38614;43.472;23.936;2023-05-02T13:29:58;100350.25;;;27.70;39.35
41830;BME280;38614;43.472;23.936;2023-05-02T13:32:50;100372.19;;;27.88;39.90
41830;BME280;38614;43.472;23.936;2023-05-02T13:35:39;100354.66;;;27.71;39.94
41830;BME280;38614;43.472;23.936;2023-05-02T13:38:26;100350.16;;;27.34;39.53
41830;BME280;38614;43.472;23.936;2023-05-02T13:41:14;100348.78;;;26.98;39.86
41830;BME280;38614;43.472;23.936;2023-05-02T13:44:02;100345.78;;;26.92;40.06
41830;BME280;38614;43.472;23.936;2023-05-02T13:46:50;100340.75;;;26.96;39.53
41830;BME280;38614;43.472;23.936;2023-05-02T13:49:37;100339.94;;;26.56;39.18
41830;BME280;38614;43.472;23.936;2023-05-02T13:52:25;100335.84;;;26.57;39.46
41830;BME280;38614;43.472;23.936;2023-05-02T13:55:13;100336.78;;;26.54;39.09
41830;BME280;38614;43.472;23.936;2023-05-02T13:58:00;100333.13;;;26.84;39.84
41830;BME280;38614;43.472;23.936;2023-05-02T14:00:49;100335.53;;;26.55;39.05
41830;BME280;38614;43.472;23.936;2023-05-02T14:03:36;100323.69;;;26.25;39.27
41830;BME280;38614;43.472;23.936;2023-05-02T14:06:25;100338.00;;;26.44;39.14
41830;BME280;38614;43.472;23.936;2023-05-02T14:09:13;100303.16;;;26.12;39.04
41830;BME280;38614;43.472;23.936;2023-05-02T14:12:01;100320.94;;;25.91;39.94
41830;BME280;38614;43.472;23.936;2023-05-02T14:14:49;100326.13;;;25.92;39.62
41830;BME280;38614;43.472;23.936;2023-05-02T14:17:37;100333.00;;;25.69;39.89
41830;BME280;38614;43.472;23.936;2023-05-02T14:20:25;100340.31;;;25.45;39.47
41830;BME280;38614;43.472;23.936;2023-05-02T14:23:12;100334.03;;;25.63;39.98
41830;BME280;38614;43.472;23.936;2023-05-02T14:26:00;100331.41;;;25.68;40.90
41830;BME280;38614;43.472;23.936;2023-05-02T14:28:48;100330.44;;;25.62;40.21
41830;BME280;38614;43.472;23.936;2023-05-02T14:31:39;100336.00;;;25.53;40.52
41830;BME280;38614;43.472;23.936;2023-05-02T14:34:27;100305.50;;;25.35;41.33
41830;BME280;38614;43.472;23.936;2023-05-02T14:37:15;100322.19;;;25.55;41.02
41830;BME280;38614;43.472;23.936;2023-05-02T14:40:03;100320.53;;;25.67;40.59
41830;BME280;38614;43.472;23.936;2023-05-02T14:42:51;100326.13;;;25.70;41.50
41830;BME280;38614;43.472;23.936;2023-05-02T14:45:39;100301.41;;;25.36;41.61
41830;BME280;38614;43.472;23.936;2023-05-02T14:48:27;100326.41;;;25.38;41.66
41830;BME280;38614;43.472;23.936;2023-05-02T14:51:14;100316.38;;;25.58;41.42
41830;BME280;38614;43.472;23.936;2023-05-02T14:54:03;100332.50;;;25.49;41.91
41830;BME280;38614;43.472;23.936;2023-05-02T14:56:53;100310.13;;;25.29;41.52
41830;BME280;38614;43.472;23.936;2023-05-02T14:59:44;100310.91;;;25.42;42.85
41830;BME280;38614;43.472;23.936;2023-05-02T15:02:32;100313.59;;;25.46;41.92
41830;BME280;38614;43.472;23.936;2023-05-02T15:05:20;100307.78;;;25.27;42.20
41830;BME280;38614;43.472;23.936;2023-05-02T15:08:08;100319.19;;;25.37;42.21
41830;BME280;38614;43.472;23.936;2023-05-02T15:10:56;100325.78;;;25.21;42.07
41830;BME280;38614;43.472;23.936;2023-05-02T15:13:44;100321.81;;;25.18;40.96
41830;BME280;38614;43.472;23.936;2023-05-02T15:16:32;100312.91;;;25.07;42.60